createdAt,value
2022-09-18T00:00:48.455Z,59.82
2022-09-18T00:03:50.274Z,59.79
2022-09-18T00:06:51.853Z,59.82
2022-09-18T00:09:53.401Z,59.81
2022-09-18T00:12:54.905Z,59.86
2022-09-18T00:15:57.084Z,59.98
2022-09-18T00:18:58.945Z,59.79
2022-09-18T00:22:00.542Z,59.88
2022-09-18T00:25:02.208Z,59.89
2022-09-18T00:28:03.865Z,59.97
2022-09-18T00:31:10.539Z,59.88
2022-09-18T00:34:14.608Z,59.92
2022-09-18T00:37:16.229Z,60.00
2022-09-18T00:40:18.488Z,59.92
2022-09-18T00:43:25.664Z,60.11
2022-09-18T00:46:33.692Z,59.82
2022-09-18T00:49:40.048Z,59.88
2022-09-18T00:53:07.761Z,60.08
2022-09-18T00:56:13.770Z,59.99
2022-09-18T00:59:22.289Z,60.06
2022-09-18T01:02:23.900Z,60.02
2022-09-18T01:05:33.680Z,60.03
2022-09-18T01:08:51.823Z,60.11
2022-09-18T01:12:21.577Z,60.22
2022-09-18T01:15:25.766Z,60.03
2022-09-18T01:18:53.700Z,59.98
2022-09-18T01:22:09.504Z,60.12
2022-09-18T01:25:35.642Z,60.11
2022-09-18T01:28:42.487Z,60.08
2022-09-18T01:31:51.823Z,60.25
2022-09-18T01:35:42.083Z,60.04
2022-09-18T01:39:02.022Z,60.09
2022-09-18T01:42:06.053Z,60.06
2022-09-18T01:45:16.021Z,60.18
2022-09-18T01:48:30.663Z,60.21
2022-09-18T01:51:54.157Z,60.16
2022-09-18T01:54:58.556Z,60.03
2022-09-18T01:58:23.900Z,60.28
2022-09-18T02:01:29.855Z,60.05
2022-09-18T02:04:35.777Z,60.19
2022-09-18T02:07:50.071Z,60.09
2022-09-18T02:11:10.656Z,60.11
2022-09-18T02:14:17.764Z,60.22
2022-09-18T02:17:28.892Z,60.02
2022-09-18T02:20:31.862Z,60.19
2022-09-18T02:23:34.014Z,60.13
2022-09-18T02:26:38.457Z,60.16
2022-09-18T02:29:42.796Z,60.23
2022-09-18T02:32:44.465Z,60.15
2022-09-18T02:35:50.676Z,60.14
2022-09-18T02:38:58.023Z,60.34
2022-09-18T02:42:18.328Z,60.20
2022-09-18T02:45:19.800Z,60.28
2022-09-18T02:48:24.182Z,60.24
2022-09-18T02:51:45.313Z,60.07
2022-09-18T02:54:57.111Z,60.12
2022-09-18T02:58:21.074Z,60.04
2022-09-18T03:01:25.394Z,60.16
2022-09-18T03:04:27.978Z,60.14
2022-09-18T03:07:29.532Z,60.22
2022-09-18T03:10:31.413Z,60.22
2022-09-18T03:13:33.306Z,60.35
2022-09-18T03:16:34.956Z,60.09
2022-09-18T03:19:36.557Z,60.09
2022-09-18T03:22:38.112Z,60.10
2022-09-18T03:25:39.642Z,60.13
2022-09-18T03:28:41.266Z,60.21
2022-09-18T03:31:42.877Z,60.16
2022-09-18T03:34:44.931Z,60.34
2022-09-18T03:37:46.499Z,60.23
2022-09-18T03:40:48.192Z,60.25
2022-09-18T03:43:50.930Z,60.39
2022-09-18T03:46:52.573Z,60.32
2022-09-18T03:49:54.177Z,60.49
2022-09-18T03:52:56.022Z,60.35
2022-09-18T03:55:57.764Z,60.16
2022-09-18T03:58:59.357Z,60.40
2022-09-18T04:02:01.175Z,60.38
2022-09-18T04:05:04.415Z,60.27
2022-09-18T04:08:06.017Z,60.32
2022-09-18T04:11:07.625Z,60.38
2022-09-18T04:14:09.226Z,60.39
2022-09-18T04:17:11.153Z,60.37
2022-09-18T04:20:12.740Z,60.41
2022-09-18T04:23:14.570Z,60.15
2022-09-18T04:26:16.188Z,60.30
2022-09-18T04:29:17.685Z,60.34
2022-09-18T04:32:19.285Z,60.18
2022-09-18T04:35:20.978Z,60.45
2022-09-18T04:38:27.497Z,60.33
2022-09-18T04:41:29.024Z,60.54
2022-09-18T04:44:30.953Z,60.38
2022-09-18T04:47:32.496Z,60.55
2022-09-18T04:50:34.004Z,60.44
2022-09-18T04:53:37.975Z,60.42
2022-09-18T04:56:40.864Z,60.44
2022-09-18T04:59:42.493Z,60.49
2022-09-18T05:02:44.048Z,60.43
2022-09-18T05:05:45.561Z,60.42
2022-09-18T05:08:47.172Z,60.44
2022-09-18T05:11:48.875Z,60.37
2022-09-18T05:14:50.409Z,60.38
2022-09-18T05:18:11.136Z,60.26
2022-09-18T05:21:13.366Z,60.44
2022-09-18T05:24:14.950Z,60.54
2022-09-18T05:27:16.717Z,60.43
2022-09-18T05:30:18.222Z,60.58
2022-09-18T05:33:19.789Z,60.44
2022-09-18T05:36:21.292Z,60.53
2022-09-18T05:39:22.867Z,60.39
2022-09-18T05:42:24.368Z,60.53
2022-09-18T05:45:26.020Z,60.30
2022-09-18T05:48:28.201Z,60.49
2022-09-18T05:51:29.704Z,60.53
2022-09-18T05:54:31.256Z,60.40
2022-09-18T05:57:32.861Z,60.38
2022-09-18T06:00:35.474Z,60.50
2022-09-18T06:03:37.069Z,60.63
2022-09-18T06:06:38.597Z,60.58
2022-09-18T06:09:40.088Z,60.67
2022-09-18T06:12:41.676Z,60.70
2022-09-18T06:15:48.411Z,60.73
2022-09-18T06:18:50.149Z,60.76
2022-09-18T06:21:52.205Z,60.63
2022-09-18T06:24:53.737Z,60.58
2022-09-18T06:28:00.385Z,60.49
2022-09-18T06:31:03.350Z,60.71
2022-09-18T06:34:05.036Z,60.41
2022-09-18T06:37:09.868Z,60.69
2022-09-18T06:40:11.968Z,60.50
2022-09-18T06:43:13.730Z,60.59
2022-09-18T06:46:15.284Z,61.07
2022-09-18T06:49:16.905Z,60.74
2022-09-18T06:52:18.479Z,60.54
2022-09-18T06:55:20.365Z,60.56
2022-09-18T06:58:21.979Z,60.54
2022-09-18T07:01:23.792Z,60.73
2022-09-18T07:04:26.178Z,60.62
2022-09-18T07:07:27.739Z,60.71
2022-09-18T07:10:29.425Z,60.81
2022-09-18T07:13:32.321Z,60.87
2022-09-18T07:16:35.325Z,60.83
2022-09-18T07:19:37.964Z,61.27
2022-09-18T07:22:43.692Z,61.19
2022-09-18T07:25:48.138Z,60.97
2022-09-18T07:28:51.873Z,60.86
2022-09-18T07:31:53.488Z,60.92
2022-09-18T07:34:55.033Z,60.83
2022-09-18T07:38:05.911Z,60.89
2022-09-18T07:41:07.657Z,60.97
2022-09-18T07:44:09.905Z,60.81
2022-09-18T07:47:11.760Z,60.92
2022-09-18T07:50:16.017Z,60.88
2022-09-18T07:53:24.551Z,60.96
2022-09-18T07:56:26.080Z,61.04
2022-09-18T07:59:27.652Z,60.76
2022-09-18T08:02:29.585Z,60.54
2022-09-18T08:05:31.388Z,60.52
2022-09-18T08:08:35.595Z,60.57
2022-09-18T08:11:37.149Z,60.80
2022-09-18T08:14:38.715Z,60.69
2022-09-18T08:17:46.925Z,60.83
2022-09-18T08:20:48.542Z,60.83
2022-09-18T08:23:50.974Z,60.77
2022-09-18T08:26:53.811Z,60.82
2022-09-18T08:29:55.574Z,60.86
2022-09-18T08:33:06.234Z,60.83
2022-09-18T08:36:07.948Z,61.10
2022-09-18T08:39:10.254Z,60.90
2022-09-18T08:42:31.037Z,60.87
2022-09-18T08:46:07.868Z,60.91
2022-09-18T08:49:27.826Z,60.82
2022-09-18T08:52:37.243Z,60.86
2022-09-18T08:55:41.352Z,60.74
2022-09-18T08:58:55.865Z,60.71
2022-09-18T09:02:17.067Z,60.73
2022-09-18T09:05:37.929Z,60.64
2022-09-18T09:09:01.041Z,60.66
2022-09-18T09:12:41.413Z,60.63
2022-09-18T09:15:48.625Z,60.87
2022-09-18T09:18:59.435Z,60.76
2022-09-18T09:22:33.313Z,60.76
2022-09-18T09:26:00.017Z,60.77
2022-09-18T09:29:12.722Z,60.74
2022-09-18T09:32:38.806Z,60.78
2022-09-18T09:35:46.415Z,60.77
2022-09-18T09:39:00.608Z,60.74
2022-09-18T09:42:11.272Z,60.73
2022-09-18T09:45:29.551Z,60.78
2022-09-18T09:48:50.785Z,60.93
2022-09-18T09:52:13.277Z,60.94
2022-09-18T09:55:15.227Z,61.09
2022-09-18T09:58:19.506Z,60.87
2022-09-18T10:01:36.798Z,60.87
2022-09-18T10:05:10.502Z,60.82
2022-09-18T10:08:18.053Z,60.58
2022-09-18T10:11:20.383Z,60.62
2022-09-18T10:14:26.641Z,60.54
2022-09-18T10:17:33.191Z,60.29
2022-09-18T10:20:36.524Z,60.39
2022-09-18T10:23:41.111Z,60.34
2022-09-18T10:27:07.332Z,60.14
2022-09-18T10:30:15.333Z,60.37
2022-09-18T10:33:39.750Z,60.13
2022-09-18T10:36:43.348Z,59.94
2022-09-18T10:40:05.473Z,59.88
2022-09-18T10:43:08.127Z,59.77
2022-09-18T10:46:09.906Z,59.60
2022-09-18T10:49:20.768Z,59.21
2022-09-18T10:52:27.649Z,59.68
2022-09-18T10:55:30.981Z,58.98
2022-09-18T10:58:34.164Z,59.15
2022-09-18T11:01:36.552Z,59.10
2022-09-18T11:04:38.723Z,59.23
2022-09-18T11:07:48.736Z,59.46
2022-09-18T11:10:53.697Z,59.86
2022-09-18T11:14:08.033Z,59.74
2022-09-18T11:17:22.026Z,59.68
2022-09-18T11:20:30.213Z,59.67
2022-09-18T11:23:34.040Z,59.72
2022-09-18T11:26:35.636Z,59.72
2022-09-18T11:29:39.816Z,59.83
2022-09-18T11:32:44.667Z,59.53
2022-09-18T11:35:49.843Z,59.19
2022-09-18T11:38:51.539Z,58.77
2022-09-18T11:41:54.735Z,59.11
2022-09-18T11:45:28.206Z,58.73
2022-09-18T11:48:38.585Z,59.06
2022-09-18T11:51:40.060Z,58.92
2022-09-18T11:55:12.166Z,59.07
2022-09-18T11:58:35.154Z,58.67
2022-09-18T12:01:46.004Z,58.67
2022-09-18T12:04:58.337Z,58.63
2022-09-18T12:08:17.293Z,58.85
2022-09-18T12:11:30.756Z,58.90
2022-09-18T12:14:58.417Z,58.62
2022-09-18T12:18:10.361Z,58.53
2022-09-18T12:21:18.691Z,58.27
2022-09-18T12:24:20.830Z,58.22
2022-09-18T12:27:35.212Z,58.04
2022-09-18T12:30:50.220Z,58.35
2022-09-18T12:34:10.431Z,58.50
2022-09-18T12:37:20.789Z,58.43
2022-09-18T12:40:34.029Z,58.45
2022-09-18T12:43:44.680Z,58.12
2022-09-18T12:47:04.620Z,58.25
2022-09-18T12:50:12.218Z,58.11
2022-09-18T12:53:16.915Z,57.90
2022-09-18T12:56:59.911Z,57.92
2022-09-18T13:00:10.985Z,58.02
2022-09-18T13:03:18.843Z,58.04
2022-09-18T13:06:33.228Z,57.96
2022-09-18T13:09:42.487Z,58.01
2022-09-18T13:12:56.397Z,57.53
2022-09-18T13:16:15.703Z,57.65
2022-09-18T13:19:31.487Z,57.83
2022-09-18T13:22:38.188Z,57.81
2022-09-18T13:25:41.438Z,57.63
2022-09-18T13:28:44.362Z,57.44
2022-09-18T13:31:53.608Z,57.81
2022-09-18T13:34:57.750Z,58.05
2022-09-18T13:38:19.619Z,58.15
2022-09-18T13:41:21.906Z,58.38
2022-09-18T13:44:29.000Z,58.25
2022-09-18T13:47:31.471Z,58.30
2022-09-18T13:50:35.496Z,58.13
2022-09-18T13:53:38.450Z,58.27
2022-09-18T13:57:09.588Z,58.13
2022-09-18T14:00:20.417Z,57.95
2022-09-18T14:03:27.678Z,57.96
2022-09-18T14:06:35.506Z,57.96
2022-09-18T14:09:52.502Z,57.78
2022-09-18T14:13:43.677Z,58.12
2022-09-18T14:16:46.073Z,57.69
2022-09-18T14:19:59.547Z,57.83
2022-09-18T14:23:40.991Z,58.07
2022-09-18T14:26:42.556Z,57.78
2022-09-18T14:29:46.948Z,57.87
2022-09-18T14:33:20.660Z,57.75
2022-09-18T14:36:22.329Z,57.54
2022-09-18T14:39:28.013Z,57.73
2022-09-18T14:42:32.624Z,57.63
2022-09-18T14:45:34.824Z,57.44
2022-09-18T14:48:38.810Z,57.56
2022-09-18T14:52:03.257Z,57.51
2022-09-18T14:55:11.514Z,57.61
2022-09-18T14:58:19.151Z,57.60
2022-09-18T15:01:28.408Z,57.45
2022-09-18T15:04:30.305Z,56.99
2022-09-18T15:07:31.912Z,57.17
2022-09-18T15:10:37.267Z,57.31
2022-09-18T15:13:39.526Z,57.62
2022-09-18T15:16:41.196Z,57.80
2022-09-18T15:19:54.882Z,57.91
2022-09-18T15:22:56.884Z,57.94
2022-09-18T15:26:03.012Z,57.89
2022-09-18T15:29:12.815Z,58.02
2022-09-18T15:32:24.287Z,58.07
2022-09-18T15:35:33.431Z,58.00
2022-09-18T15:38:42.724Z,58.10
2022-09-18T15:41:45.718Z,58.21
2022-09-18T15:44:50.247Z,57.99
2022-09-18T15:47:52.497Z,58.10
2022-09-18T15:51:13.019Z,58.11
2022-09-18T15:54:18.060Z,57.99
2022-09-18T15:57:19.743Z,58.11
2022-09-18T16:00:24.774Z,58.11
2022-09-18T16:03:30.121Z,58.02
2022-09-18T16:06:35.457Z,58.00
2022-09-18T16:09:40.235Z,58.26
2022-09-18T16:12:42.454Z,58.15
2022-09-18T16:15:47.749Z,58.13
2022-09-18T16:18:56.434Z,58.09
2022-09-18T16:22:06.824Z,58.15
2022-09-18T16:25:28.871Z,58.02
2022-09-18T16:28:32.913Z,58.13
2022-09-18T16:31:37.504Z,58.20
2022-09-18T16:34:40.292Z,58.30
2022-09-18T16:37:44.078Z,58.19
2022-09-18T16:40:46.924Z,58.12
2022-09-18T16:43:49.743Z,58.00
2022-09-18T16:46:59.990Z,58.15
2022-09-18T16:50:01.811Z,58.14
2022-09-18T16:53:03.811Z,58.29
2022-09-18T16:56:09.222Z,58.18
2022-09-18T16:59:11.338Z,58.38
2022-09-18T17:02:16.830Z,58.30
2022-09-18T17:05:18.596Z,58.48
2022-09-18T17:08:20.249Z,58.43
2022-09-18T17:11:21.856Z,58.35
2022-09-18T17:14:24.286Z,58.48
2022-09-18T17:17:25.969Z,58.42
2022-09-18T17:20:27.620Z,58.42
2022-09-18T17:23:33.056Z,58.43
2022-09-18T17:26:36.511Z,58.48
2022-09-18T17:29:38.234Z,58.41
2022-09-18T17:32:39.959Z,58.53
2022-09-18T17:35:41.691Z,58.57
2022-09-18T17:38:44.020Z,58.62
2022-09-18T17:41:45.921Z,58.67
2022-09-18T17:44:47.737Z,58.63
2022-09-18T17:47:53.351Z,58.71
2022-09-18T17:50:58.015Z,58.65
2022-09-18T17:54:05.182Z,58.54
2022-09-18T17:57:11.524Z,58.55
2022-09-18T18:00:13.572Z,58.58
2022-09-18T18:03:15.241Z,58.67
2022-09-18T18:06:21.621Z,58.59
2022-09-18T18:09:23.643Z,58.56
2022-09-18T18:12:25.265Z,58.48
2022-09-18T18:15:26.783Z,58.68
2022-09-18T18:18:28.364Z,58.63
2022-09-18T18:21:32.363Z,58.71
2022-09-18T18:24:34.207Z,58.63
2022-09-18T18:27:35.904Z,58.71
2022-09-18T18:30:38.496Z,58.54
2022-09-18T18:33:42.677Z,58.61
2022-09-18T18:36:44.294Z,58.61
2022-09-18T18:39:48.067Z,58.57
2022-09-18T18:42:49.964Z,58.64
2022-09-18T18:45:56.519Z,58.68
2022-09-18T18:49:02.788Z,58.55
2022-09-18T18:52:05.132Z,58.60
2022-09-18T18:55:06.870Z,58.60
2022-09-18T18:58:08.866Z,58.58
2022-09-18T19:01:14.304Z,58.63
2022-09-18T19:04:19.046Z,58.50
2022-09-18T19:07:20.579Z,58.52
2022-09-18T19:10:23.661Z,58.49
2022-09-18T19:13:25.733Z,58.44
2022-09-18T19:16:29.099Z,58.57
2022-09-18T19:19:30.817Z,58.38
2022-09-18T19:22:32.410Z,58.48
2022-09-18T19:25:34.510Z,58.51
2022-09-18T19:28:36.813Z,58.46
2022-09-18T19:31:40.416Z,58.47
2022-09-18T19:34:42.043Z,58.53
2022-09-18T19:37:43.612Z,58.38
2022-09-18T19:40:48.250Z,58.35
2022-09-18T19:43:50.236Z,58.34
2022-09-18T19:46:54.776Z,58.39
2022-09-18T19:49:58.392Z,58.40
2022-09-18T19:53:01.054Z,58.37
2022-09-18T19:56:18.436Z,58.36
2022-09-18T19:59:29.421Z,58.37
2022-09-18T20:02:31.036Z,58.38
2022-09-18T20:05:35.581Z,58.30
2022-09-18T20:08:37.136Z,58.50
2022-09-18T20:11:38.832Z,58.40
2022-09-18T20:14:40.561Z,58.52
2022-09-18T20:17:42.099Z,58.41
2022-09-18T20:20:44.700Z,58.56
2022-09-18T20:23:47.715Z,58.36
2022-09-18T20:26:51.151Z,58.43
2022-09-18T20:29:53.147Z,58.56
2022-09-18T20:32:54.960Z,58.41
2022-09-18T20:35:59.196Z,58.50
2022-09-18T20:39:02.283Z,58.46
2022-09-18T20:42:04.196Z,58.40
2022-09-18T20:45:07.568Z,58.46
2022-09-18T20:48:09.101Z,58.34
2022-09-18T20:51:14.323Z,58.50
2022-09-18T20:54:16.490Z,58.46
2022-09-18T20:57:18.115Z,58.44
2022-09-18T21:00:19.838Z,58.55
2022-09-18T21:03:21.426Z,58.52
2022-09-18T21:06:25.415Z,58.62
2022-09-18T21:09:30.762Z,58.60
2022-09-18T21:12:32.640Z,58.55
2022-09-18T21:15:34.937Z,58.47
2022-09-18T21:18:37.411Z,58.54
2022-09-18T21:21:40.087Z,58.56
2022-09-18T21:24:42.727Z,58.50
2022-09-18T21:27:44.319Z,58.54
2022-09-18T21:30:45.871Z,58.48
2022-09-18T21:33:48.359Z,58.42
2022-09-18T21:36:52.992Z,58.62
2022-09-18T21:39:54.544Z,58.55
2022-09-18T21:42:56.149Z,58.55
2022-09-18T21:46:06.515Z,58.82
2022-09-18T21:49:09.336Z,58.80
2022-09-18T21:52:11.199Z,58.71
2022-09-18T21:55:12.868Z,58.55
2022-09-18T21:58:14.403Z,58.67
2022-09-18T22:01:22.445Z,58.51
2022-09-18T22:04:27.026Z,58.62
2022-09-18T22:07:29.126Z,58.96
2022-09-18T22:10:30.716Z,58.81
2022-09-18T22:13:35.165Z,58.75
2022-09-18T22:16:38.579Z,58.53
2022-09-18T22:19:41.693Z,58.65
2022-09-18T22:22:43.730Z,58.69
2022-09-18T22:25:46.095Z,58.62
2022-09-18T22:28:49.850Z,58.62
2022-09-18T22:31:51.816Z,58.63
2022-09-18T22:34:54.509Z,58.70
2022-09-18T22:37:56.098Z,58.83
2022-09-18T22:41:02.968Z,58.91
2022-09-18T22:44:05.944Z,58.92
2022-09-18T22:47:07.538Z,58.94
2022-09-18T22:50:09.318Z,58.97
2022-09-18T22:53:11.699Z,59.13
2022-09-18T22:56:14.676Z,59.10
2022-09-18T22:59:17.979Z,59.06
2022-09-18T23:02:20.817Z,59.07
2022-09-18T23:05:22.416Z,59.09
2022-09-18T23:08:25.035Z,59.23
2022-09-18T23:11:29.735Z,59.29
2022-09-18T23:14:31.611Z,59.22
2022-09-18T23:17:33.249Z,59.18
2022-09-18T23:20:34.776Z,59.23
2022-09-18T23:23:39.355Z,59.07
2022-09-18T23:26:42.846Z,59.19
2022-09-18T23:29:44.533Z,59.41
2022-09-18T23:32:48.560Z,59.29
2022-09-18T23:35:50.257Z,59.19
2022-09-18T23:38:56.353Z,59.45
2022-09-18T23:41:59.374Z,59.49
2022-09-18T23:45:00.916Z,59.28
2022-09-18T23:48:02.552Z,59.35
2022-09-18T23:51:05.700Z,59.41
2022-09-18T23:54:12.447Z,59.39
2022-09-18T23:57:14.068Z,59.50
